createdAt,value
2018-09-06T00:00:21.003Z,77.80
2018-09-06T00:01:25.096Z,77.70
2018-09-06T00:02:29.171Z,77.60
2018-09-06T00:03:33.262Z,77.60
2018-09-06T00:04:37.760Z,77.70
2018-09-06T00:05:41.872Z,77.80
2018-09-06T00:06:45.993Z,77.90
2018-09-06T00:07:50.368Z,77.90
2018-09-06T00:08:54.472Z,77.90
2018-09-06T00:09:58.589Z,77.80
2018-09-06T00:11:03.055Z,77.90
2018-09-06T00:12:07.116Z,77.90
2018-09-06T00:13:11.169Z,78.00
2018-09-06T00:14:15.542Z,78.00
2018-09-06T00:15:19.682Z,78.00
2018-09-06T00:16:24.012Z,78.00
2018-09-06T00:17:28.253Z,77.90
2018-09-06T00:18:32.398Z,77.90
2018-09-06T00:19:36.581Z,77.80
2018-09-06T00:20:41.187Z,77.60
2018-09-06T00:21:45.346Z,77.60
2018-09-06T00:22:49.624Z,77.60
2018-09-06T00:23:53.792Z,77.50
2018-09-06T00:24:58.255Z,77.30
2018-09-06T00:26:02.324Z,77.30
2018-09-06T00:27:06.388Z,77.20
2018-09-06T00:28:10.424Z,77.00
2018-09-06T00:29:14.540Z,77.00
2018-09-06T00:30:18.628Z,77.00
2018-09-06T00:31:22.819Z,77.00
2018-09-06T00:32:27.101Z,77.10
2018-09-06T00:33:31.165Z,77.00
2018-09-06T00:34:35.344Z,76.90
2018-09-06T00:35:39.408Z,76.80
2018-09-06T00:36:43.669Z,76.90
2018-09-06T00:37:47.949Z,77.00
2018-09-06T00:38:51.997Z,77.10
2018-09-06T00:39:56.372Z,77.30
2018-09-06T00:41:00.619Z,77.30
2018-09-06T00:42:04.723Z,77.50
2018-09-06T00:43:08.820Z,77.70
2018-09-06T00:44:13.089Z,77.60
2018-09-06T00:45:17.256Z,77.70
2018-09-06T00:46:21.390Z,77.80
2018-09-06T00:47:25.457Z,77.80
2018-09-06T00:48:29.663Z,77.80
2018-09-06T00:49:33.823Z,78.00
2018-09-06T00:50:39.185Z,78.00
2018-09-06T00:51:43.681Z,78.10
2018-09-06T00:52:49.172Z,78.00
2018-09-06T00:53:54.159Z,77.90
2018-09-06T00:54:58.430Z,77.90
2018-09-06T00:56:02.553Z,77.80
2018-09-06T00:57:07.027Z,78.70
2018-09-06T00:58:11.094Z,78.00
2018-09-06T00:59:15.242Z,77.50
2018-09-06T01:00:19.857Z,78.10
2018-09-06T01:01:23.988Z,78.10
2018-09-06T01:02:28.063Z,78.10
2018-09-06T01:03:32.272Z,77.90
2018-09-06T01:04:36.334Z,78.00
2018-09-06T01:05:40.462Z,78.00
2018-09-06T01:06:44.614Z,78.00
2018-09-06T01:07:48.852Z,78.00
2018-09-06T01:08:52.962Z,78.00
2018-09-06T01:09:57.137Z,78.70
2018-09-06T01:11:01.534Z,78.00
2018-09-06T01:12:05.724Z,78.00
2018-09-06T01:13:09.797Z,78.00
2018-09-06T01:14:13.964Z,78.90
2018-09-06T01:15:18.352Z,78.10
2018-09-06T01:16:22.456Z,78.10
2018-09-06T01:17:26.602Z,78.10
2018-09-06T01:18:31.149Z,78.90
2018-09-06T01:19:35.354Z,78.20
2018-09-06T01:20:39.460Z,78.20
2018-09-06T01:21:43.796Z,78.20
2018-09-06T01:22:48.095Z,78.20
2018-09-06T01:23:52.261Z,78.20
2018-09-06T01:26:17.585Z,78.20
2018-09-06T01:27:27.656Z,78.30
2018-09-06T01:28:37.554Z,78.30
2018-09-06T01:29:41.721Z,78.40
2018-09-06T01:30:46.008Z,78.40
2018-09-06T01:31:50.102Z,78.30
2018-09-06T01:32:54.188Z,78.40
2018-09-06T01:33:58.383Z,78.50
2018-09-06T01:35:02.506Z,78.60
2018-09-06T01:36:12.027Z,78.60
2018-09-06T01:37:16.132Z,78.70
2018-09-06T01:38:20.243Z,78.80
2018-09-06T01:39:24.502Z,78.80
2018-09-06T01:40:28.640Z,78.80
2018-09-06T01:41:32.747Z,78.80
2018-09-06T01:42:37.257Z,78.90
2018-09-06T01:43:41.284Z,79.00
2018-09-06T01:44:45.396Z,78.90
2018-09-06T01:45:49.930Z,79.00
2018-09-06T01:46:53.972Z,79.00
2018-09-06T01:47:58.048Z,79.20
2018-09-06T01:49:02.658Z,79.00
2018-09-06T01:50:06.824Z,79.00
2018-09-06T01:51:10.901Z,79.00
2018-09-06T01:52:15.229Z,78.90
2018-09-06T01:53:19.536Z,79.00
2018-09-06T01:54:23.719Z,78.80
2018-09-06T01:55:28.043Z,78.70
2018-09-06T01:56:32.845Z,78.70
2018-09-06T01:57:36.920Z,78.70
2018-09-06T01:58:40.996Z,78.70
2018-09-06T01:59:45.373Z,78.70
2018-09-06T02:00:49.464Z,78.70
2018-09-06T02:01:53.879Z,78.80
2018-09-06T02:02:57.937Z,78.80
2018-09-06T02:04:02.079Z,79.00
2018-09-06T02:05:06.213Z,78.90
2018-09-06T02:06:11.864Z,78.80
2018-09-06T02:07:16.097Z,78.70
2018-09-06T02:08:20.655Z,78.60
2018-09-06T02:09:24.761Z,78.60
2018-09-06T02:10:28.859Z,78.60
2018-09-06T02:11:32.980Z,78.60
2018-09-06T02:12:37.473Z,78.60
2018-09-06T02:13:41.595Z,78.60
2018-09-06T02:14:45.756Z,78.70
2018-09-06T02:15:49.827Z,78.70
2018-09-06T02:16:53.913Z,78.80
2018-09-06T02:17:58.273Z,78.90
2018-09-06T02:19:02.395Z,79.10
2018-09-06T02:20:06.728Z,79.00
2018-09-06T02:21:10.812Z,79.80
2018-09-06T02:22:14.959Z,79.80
2018-09-06T02:23:19.108Z,79.10
2018-09-06T02:24:23.536Z,78.90
2018-09-06T02:25:27.623Z,79.20
2018-09-06T02:26:31.730Z,78.90
2018-09-06T02:27:35.845Z,78.80
2018-09-06T02:28:40.031Z,79.00
2018-09-06T02:29:44.118Z,78.80
2018-09-06T02:30:48.580Z,78.70
2018-09-06T02:31:52.672Z,78.70
2018-09-06T02:32:57.146Z,78.60
2018-09-06T02:34:01.220Z,79.30
2018-09-06T02:35:05.466Z,78.60
2018-09-06T02:36:09.691Z,78.80
2018-09-06T02:37:13.751Z,78.90
2018-09-06T02:38:17.796Z,79.10
2018-09-06T02:39:22.044Z,79.20
2018-09-06T02:40:31.649Z,79.20
2018-09-06T02:41:36.124Z,79.20
2018-09-06T02:42:40.222Z,79.10
2018-09-06T02:43:44.350Z,79.10
2018-09-06T02:44:48.434Z,79.00
2018-09-06T02:45:52.769Z,79.00
2018-09-06T02:46:56.807Z,79.00
2018-09-06T02:48:00.908Z,79.10
2018-09-06T02:49:05.454Z,79.00
2018-09-06T02:50:15.007Z,79.00
2018-09-06T02:51:20.340Z,79.00
2018-09-06T02:52:24.753Z,79.10
2018-09-06T02:53:31.715Z,79.20
2018-09-06T02:54:35.869Z,79.00
2018-09-06T02:55:40.518Z,79.10
2018-09-06T02:56:44.590Z,79.00
2018-09-06T02:57:48.898Z,79.80
2018-09-06T02:58:52.997Z,79.00
2018-09-06T02:59:57.284Z,79.00
2018-09-06T03:01:01.451Z,78.90
2018-09-06T03:02:05.703Z,79.00
2018-09-06T03:03:09.968Z,79.00
2018-09-06T03:04:14.095Z,79.00
2018-09-06T03:05:18.161Z,79.70
2018-09-06T03:06:22.298Z,79.00
2018-09-06T03:07:26.451Z,79.00
2018-09-06T03:08:30.792Z,79.00
2018-09-06T03:09:34.866Z,78.90
2018-09-06T03:10:43.713Z,78.90
2018-09-06T03:11:53.032Z,79.00
2018-09-06T03:12:57.152Z,80.00
2018-09-06T03:14:01.453Z,79.10
2018-09-06T03:15:05.542Z,79.10
2018-09-06T03:16:09.624Z,79.20
2018-09-06T03:17:13.808Z,79.20
2018-09-06T03:18:18.489Z,79.40
2018-09-06T03:19:22.597Z,79.40
2018-09-06T03:20:26.618Z,79.40
2018-09-06T03:21:30.780Z,79.30
2018-09-06T03:22:34.948Z,79.30
2018-09-06T03:23:39.513Z,79.30
2018-09-06T03:24:43.532Z,79.40
2018-09-06T03:25:47.537Z,79.40
2018-09-06T03:26:51.632Z,79.30
2018-09-06T03:27:55.849Z,79.20
2018-09-06T03:29:00.010Z,79.20
2018-09-06T03:30:04.244Z,79.10
2018-09-06T03:31:08.591Z,79.00
2018-09-06T03:32:12.659Z,79.00
2018-09-06T03:33:16.787Z,78.90
2018-09-06T03:34:20.951Z,78.80
2018-09-06T03:35:24.999Z,78.90
2018-09-06T03:36:29.267Z,79.00
2018-09-06T03:37:33.522Z,79.00
2018-09-06T03:38:37.642Z,79.10
2018-09-06T03:39:41.668Z,79.00
2018-09-06T03:40:45.970Z,78.90
2018-09-06T03:41:50.084Z,78.90
2018-09-06T03:42:54.170Z,79.00
2018-09-06T03:43:58.616Z,79.00
2018-09-06T03:45:02.678Z,79.10
2018-09-06T03:46:07.983Z,79.10
2018-09-06T03:47:12.084Z,79.10
2018-09-06T03:48:16.549Z,79.00
2018-09-06T03:49:20.685Z,79.00
2018-09-06T03:50:24.853Z,79.00
2018-09-06T03:51:29.205Z,79.00
2018-09-06T03:52:33.309Z,79.00
2018-09-06T03:53:37.680Z,79.10
2018-09-06T03:54:42.141Z,79.10
2018-09-06T03:55:46.192Z,79.10
2018-09-06T03:56:50.316Z,79.10
2018-09-06T03:57:54.599Z,79.20
2018-09-06T03:58:58.659Z,79.20
2018-09-06T04:00:02.857Z,79.40
2018-09-06T04:01:07.045Z,79.30
2018-09-06T04:02:11.100Z,79.40
2018-09-06T04:03:15.172Z,79.50
2018-09-06T04:04:19.321Z,79.50
2018-09-06T04:05:23.762Z,79.60
2018-09-06T04:06:27.831Z,78.70
2018-09-06T04:07:31.955Z,79.40
2018-09-06T04:08:36.456Z,79.30
2018-09-06T04:09:40.648Z,79.20
2018-09-06T04:10:44.851Z,79.30
2018-09-06T04:11:49.104Z,79.20
2018-09-06T04:12:53.270Z,79.10
2018-09-06T04:13:57.382Z,79.10
2018-09-06T04:15:01.592Z,79.00
2018-09-06T04:16:05.889Z,79.20
2018-09-06T04:17:09.973Z,79.10
2018-09-06T04:18:14.200Z,79.30
2018-09-06T04:19:18.331Z,79.20
2018-09-06T04:20:22.452Z,79.20
2018-09-06T04:21:26.584Z,79.20
2018-09-06T04:22:30.658Z,79.30
2018-09-06T04:23:35.003Z,79.20
2018-09-06T04:24:39.489Z,79.20
2018-09-06T04:25:43.584Z,79.30
2018-09-06T04:26:47.814Z,79.50
2018-09-06T04:27:51.958Z,79.50
2018-09-06T04:28:55.973Z,79.60
2018-09-06T04:30:00.156Z,79.60
2018-09-06T04:31:04.312Z,79.70
2018-09-06T04:32:08.402Z,79.70
2018-09-06T04:33:12.529Z,79.70
2018-09-06T04:34:16.620Z,79.70
2018-09-06T04:35:20.740Z,79.70
2018-09-06T04:36:24.978Z,79.70
2018-09-06T04:37:29.241Z,79.70
2018-09-06T04:38:33.416Z,79.80
2018-09-06T04:39:37.689Z,79.90
2018-09-06T04:40:41.901Z,79.80
2018-09-06T04:41:46.107Z,79.70
2018-09-06T04:42:50.222Z,79.80
2018-09-06T04:43:54.311Z,79.70
2018-09-06T04:44:58.522Z,79.80
2018-09-06T04:46:02.661Z,79.80
2018-09-06T04:47:07.576Z,79.90
2018-09-06T04:48:11.855Z,80.80
2018-09-06T04:49:16.258Z,80.00
2018-09-06T04:50:20.387Z,80.10
2018-09-06T04:51:24.810Z,80.40
2018-09-06T04:52:28.940Z,80.30
2018-09-06T04:53:33.015Z,80.20
2018-09-06T04:54:37.424Z,80.20
2018-09-06T04:55:41.534Z,80.10
2018-09-06T04:56:45.610Z,80.10
2018-09-06T04:57:49.914Z,80.00
2018-09-06T04:58:54.103Z,80.20
2018-09-06T04:59:58.204Z,80.00
2018-09-06T05:01:02.428Z,79.90
2018-09-06T05:02:06.702Z,79.90
2018-09-06T05:03:10.872Z,79.90
2018-09-06T05:04:15.538Z,79.90
2018-09-06T05:05:19.864Z,79.90
2018-09-06T05:06:23.919Z,80.00
2018-09-06T05:07:28.028Z,80.00
2018-09-06T05:08:32.369Z,80.00
2018-09-06T05:09:36.832Z,80.10
2018-09-06T05:10:40.928Z,80.20
2018-09-06T05:11:44.991Z,80.20
2018-09-06T05:12:49.334Z,80.30
2018-09-06T05:13:53.517Z,80.50
2018-09-06T05:14:57.802Z,80.40
2018-09-06T05:16:02.226Z,80.40
2018-09-06T05:17:06.493Z,80.40
2018-09-06T05:18:10.655Z,80.40
2018-09-06T05:19:14.741Z,80.40
2018-09-06T05:20:18.801Z,81.30
2018-09-06T05:21:22.956Z,80.40
2018-09-06T05:22:27.564Z,80.40
2018-09-06T05:23:31.703Z,80.60
2018-09-06T05:24:35.823Z,80.70
2018-09-06T05:25:40.303Z,80.60
2018-09-06T05:26:44.435Z,80.60
2018-09-06T05:27:48.485Z,80.60
2018-09-06T05:28:52.686Z,80.70
2018-09-06T05:29:56.858Z,81.30
2018-09-06T05:31:00.918Z,80.70
2018-09-06T05:32:05.042Z,80.80
2018-09-06T05:33:09.082Z,80.80
2018-09-06T05:34:13.444Z,80.70
2018-09-06T05:35:17.615Z,80.70
2018-09-06T05:36:21.706Z,80.80
2018-09-06T05:37:25.725Z,80.80
2018-09-06T05:38:29.902Z,80.90
2018-09-06T05:39:34.336Z,81.70
2018-09-06T05:40:38.443Z,81.70
2018-09-06T05:41:42.838Z,81.00
2018-09-06T05:42:46.923Z,81.00
2018-09-06T05:43:51.291Z,81.00
2018-09-06T05:44:55.482Z,81.10
2018-09-06T05:45:59.628Z,82.00
2018-09-06T05:47:04.050Z,81.30
2018-09-06T05:48:08.134Z,81.30
2018-09-06T05:49:12.198Z,81.40
2018-09-06T05:50:16.634Z,81.50
2018-09-06T05:51:20.725Z,81.60
2018-09-06T05:52:24.790Z,81.60
2018-09-06T05:53:29.041Z,81.60
2018-09-06T05:54:33.134Z,81.70
2018-09-06T05:55:37.374Z,81.90
2018-09-06T05:56:41.562Z,81.80
2018-09-06T05:57:45.727Z,81.90
2018-09-06T05:58:50.049Z,81.90
2018-09-06T05:59:54.197Z,81.90
2018-09-06T06:00:58.335Z,82.00
2018-09-06T06:02:02.850Z,82.00
2018-09-06T06:03:07.786Z,82.00
2018-09-06T06:04:11.933Z,82.10
2018-09-06T06:05:16.414Z,82.70
2018-09-06T06:06:20.486Z,82.30
2018-09-06T06:08:33.505Z,82.30
2018-09-06T06:09:37.700Z,82.50
2018-09-06T06:10:42.171Z,82.30
2018-09-06T06:11:46.591Z,82.40
2018-09-06T06:12:50.704Z,82.50
2018-09-06T06:13:54.801Z,82.60
2018-09-06T06:14:58.984Z,82.80
2018-09-06T06:16:03.178Z,83.70
2018-09-06T06:17:07.293Z,82.90
2018-09-06T06:18:11.505Z,83.00
2018-09-06T06:19:15.513Z,83.10
2018-09-06T06:20:19.973Z,83.20
2018-09-06T06:21:24.204Z,83.20
2018-09-06T06:22:28.344Z,83.20
2018-09-06T06:23:32.470Z,83.30
2018-09-06T06:24:36.902Z,83.30
2018-09-06T06:25:41.251Z,83.40
2018-09-06T06:26:45.380Z,83.40
2018-09-06T06:27:49.534Z,83.50
2018-09-06T06:28:53.960Z,83.50
2018-09-06T06:29:58.059Z,83.60
2018-09-06T06:31:02.232Z,83.60
2018-09-06T06:32:06.918Z,83.60
2018-09-06T06:33:10.987Z,83.80
2018-09-06T06:34:15.323Z,83.70
2018-09-06T06:35:19.501Z,83.70
2018-09-06T06:36:23.966Z,83.80
2018-09-06T06:37:28.784Z,83.80
2018-09-06T06:38:33.227Z,83.80
2018-09-06T06:39:37.371Z,83.90
2018-09-06T06:40:41.697Z,84.70
2018-09-06T06:41:45.909Z,84.60
2018-09-06T06:42:50.485Z,83.90
2018-09-06T06:43:54.657Z,83.90
2018-09-06T06:44:58.704Z,83.90
2018-09-06T06:46:03.284Z,84.00
2018-09-06T06:47:07.863Z,84.00
2018-09-06T06:48:11.948Z,84.00
2018-09-06T06:49:16.439Z,84.00
2018-09-06T06:50:20.930Z,84.10
2018-09-06T06:51:25.097Z,84.10
2018-09-06T06:52:29.435Z,84.10
2018-09-06T06:53:33.638Z,84.00
2018-09-06T06:54:37.842Z,84.70
2018-09-06T06:55:42.005Z,84.10
2018-09-06T06:56:46.491Z,84.10
2018-09-06T06:57:50.691Z,84.10
2018-09-06T06:58:54.850Z,84.20
2018-09-06T06:59:59.034Z,84.30
2018-09-06T07:01:03.242Z,84.30
2018-09-06T07:02:08.031Z,84.40
2018-09-06T07:03:14.147Z,84.30
2018-09-06T07:04:18.309Z,84.30
2018-09-06T07:05:22.558Z,84.40
2018-09-06T07:06:26.722Z,84.30
2018-09-06T07:07:30.801Z,84.30
2018-09-06T07:08:34.952Z,84.30
2018-09-06T07:09:39.056Z,84.30
2018-09-06T07:10:43.208Z,84.20
2018-09-06T07:11:47.587Z,84.20
2018-09-06T07:12:51.772Z,84.20
2018-09-06T07:13:55.927Z,84.20
2018-09-06T07:15:00.261Z,84.20
2018-09-06T07:16:04.388Z,84.20
2018-09-06T07:17:08.525Z,84.30
2018-09-06T07:18:12.976Z,84.30
2018-09-06T07:19:17.624Z,84.30
2018-09-06T07:20:21.756Z,84.30
2018-09-06T07:21:26.064Z,84.20
2018-09-06T07:22:30.648Z,84.20
2018-09-06T07:23:34.705Z,84.20
2018-09-06T07:24:38.857Z,84.10
2018-09-06T07:25:43.993Z,84.20
2018-09-06T07:26:48.173Z,84.10
2018-09-06T07:27:52.647Z,84.80
2018-09-06T07:28:57.220Z,83.90
2018-09-06T07:30:01.318Z,83.80
2018-09-06T07:31:05.692Z,83.80
2018-09-06T07:32:09.832Z,83.70
2018-09-06T07:33:13.932Z,83.70
2018-09-06T07:34:18.072Z,83.70
2018-09-06T07:35:22.800Z,83.70
2018-09-06T07:36:27.052Z,83.60
2018-09-06T07:37:31.203Z,83.50
2018-09-06T07:38:35.663Z,83.60
2018-09-06T07:39:39.887Z,83.60
2018-09-06T07:40:43.992Z,83.50
2018-09-06T07:41:48.487Z,83.40
2018-09-06T07:42:52.599Z,83.40
2018-09-06T07:43:56.733Z,83.30
2018-09-06T07:45:01.318Z,83.30
2018-09-06T07:46:05.701Z,83.30
2018-09-06T07:47:09.908Z,83.10
2018-09-06T07:48:14.302Z,82.90
2018-09-06T07:49:18.501Z,82.80
2018-09-06T07:50:22.650Z,82.70
2018-09-06T07:51:27.277Z,82.50
2018-09-06T07:52:31.596Z,82.50
2018-09-06T07:53:35.762Z,82.50
2018-09-06T07:54:40.214Z,82.30
2018-09-06T07:55:44.286Z,82.10
2018-09-06T07:56:48.538Z,81.90
2018-09-06T07:57:53.083Z,82.10
2018-09-06T07:58:57.219Z,82.10
2018-09-06T08:00:01.390Z,82.10
2018-09-06T08:01:05.785Z,82.10
2018-09-06T08:02:10.276Z,82.00
2018-09-06T08:03:14.574Z,81.90
2018-09-06T08:04:18.784Z,81.90
2018-09-06T08:05:22.939Z,81.80
2018-09-06T08:06:27.072Z,81.70
2018-09-06T08:07:31.188Z,81.70
2018-09-06T08:08:35.703Z,81.50
2018-09-06T08:09:39.900Z,81.40
2018-09-06T08:10:44.091Z,81.90
2018-09-06T08:11:48.185Z,81.00
2018-09-06T08:12:52.492Z,80.90
2018-09-06T08:13:56.576Z,80.80
2018-09-06T08:15:00.679Z,80.80
2018-09-06T08:16:04.795Z,80.60
2018-09-06T08:17:09.382Z,80.40
2018-09-06T08:18:13.532Z,80.50
2018-09-06T08:19:17.699Z,80.40
2018-09-06T08:20:21.902Z,80.20
2018-09-06T08:21:26.432Z,79.90
2018-09-06T08:22:30.636Z,79.70
2018-09-06T08:23:34.758Z,79.30
2018-09-06T08:24:39.016Z,79.00
2018-09-06T08:25:43.095Z,79.70
2018-09-06T08:26:47.400Z,78.70
2018-09-06T08:27:51.838Z,78.50
2018-09-06T08:28:55.912Z,78.00
2018-09-06T08:30:00.020Z,78.20
2018-09-06T08:31:04.276Z,76.90
2018-09-06T08:32:08.625Z,76.70
2018-09-06T08:33:12.868Z,76.30
2018-09-06T08:34:17.041Z,76.20
2018-09-06T08:35:21.244Z,76.00
2018-09-06T08:36:25.523Z,75.80
2018-09-06T08:37:29.703Z,75.70
2018-09-06T08:38:33.743Z,75.40
2018-09-06T08:39:37.876Z,75.10
2018-09-06T08:40:41.910Z,75.00
2018-09-06T08:41:46.267Z,75.00
2018-09-06T08:42:50.503Z,75.00
2018-09-06T08:43:54.851Z,75.00
2018-09-06T08:44:59.416Z,75.00
2018-09-06T08:46:03.780Z,75.10
2018-09-06T08:47:08.642Z,75.00
2018-09-06T08:48:12.806Z,75.00
2018-09-06T08:49:17.248Z,74.90
2018-09-06T08:50:21.392Z,74.80
2018-09-06T08:51:25.571Z,74.70
2018-09-06T08:52:29.759Z,74.70
2018-09-06T08:53:33.985Z,74.50
2018-09-06T08:54:38.094Z,74.30
2018-09-06T08:55:42.153Z,74.20
2018-09-06T08:56:46.551Z,73.90
2018-09-06T08:57:50.680Z,73.70
2018-09-06T08:58:54.765Z,73.20
2018-09-06T08:59:59.163Z,73.10
2018-09-06T09:01:08.794Z,72.80
2018-09-06T09:02:14.187Z,72.60
2018-09-06T09:03:18.395Z,72.30
2018-09-06T09:04:22.703Z,71.80
2018-09-06T09:05:26.848Z,71.90
2018-09-06T09:06:31.057Z,71.60
2018-09-06T09:07:35.232Z,71.60
2018-09-06T09:08:39.331Z,71.40
2018-09-06T09:09:43.696Z,71.40
2018-09-06T09:10:48.214Z,71.40
2018-09-06T09:11:52.289Z,70.80
2018-09-06T09:12:56.672Z,70.50
2018-09-06T09:14:00.745Z,70.10
2018-09-06T09:15:05.465Z,69.90
2018-09-06T09:16:09.867Z,69.70
2018-09-06T09:17:13.915Z,69.60
2018-09-06T09:18:18.040Z,69.20
2018-09-06T09:19:22.402Z,68.70
2018-09-06T09:20:26.513Z,68.60
2018-09-06T09:21:30.603Z,68.50
2018-09-06T09:22:34.688Z,68.40
2018-09-06T09:23:39.006Z,68.20
2018-09-06T09:24:43.403Z,67.90
2018-09-06T09:25:47.574Z,67.70
2018-09-06T09:26:51.756Z,67.30
2018-09-06T09:27:55.959Z,66.60
2018-09-06T09:29:00.367Z,65.90
2018-09-06T09:30:04.464Z,65.60
2018-09-06T09:31:08.619Z,64.90
2018-09-06T09:32:13.174Z,64.50
2018-09-06T09:33:17.319Z,63.60
2018-09-06T09:34:21.858Z,63.20
2018-09-06T09:35:26.060Z,62.30
2018-09-06T09:36:30.276Z,61.60
2018-09-06T09:37:34.458Z,61.40
2018-09-06T09:38:38.587Z,60.80
2018-09-06T09:39:43.773Z,60.10
2018-09-06T09:40:47.842Z,59.70
2018-09-06T09:41:52.223Z,59.10
2018-09-06T09:42:56.386Z,58.50
2018-09-06T09:44:00.533Z,58.20
2018-09-06T09:45:04.721Z,57.00
2018-09-06T09:48:16.046Z,55.80
2018-09-06T09:49:20.142Z,55.20
2018-09-06T09:51:27.769Z,54.20
2018-09-06T09:52:31.872Z,54.10
2018-09-06T09:53:36.086Z,53.90
2018-09-06T09:54:40.391Z,53.70
2018-09-06T09:55:44.636Z,53.30
2018-09-06T09:56:48.848Z,52.70
2018-09-06T09:57:52.922Z,52.50
2018-09-06T09:58:57.050Z,52.50
2018-09-06T10:00:03.682Z,52.20
2018-09-06T10:01:07.905Z,52.00
2018-09-06T10:02:17.682Z,51.60
2018-09-06T10:03:27.124Z,51.30
2018-09-06T10:05:36.753Z,51.20
2018-09-06T10:06:46.280Z,51.10
2018-09-06T10:07:57.744Z,51.00
2018-09-06T10:09:07.217Z,50.40
2018-09-06T10:10:11.268Z,49.70
2018-09-06T10:11:15.396Z,49.20
2018-09-06T10:12:19.723Z,49.10
2018-09-06T10:13:23.990Z,49.00
2018-09-06T10:14:28.276Z,49.00
2018-09-06T10:15:32.364Z,48.90
2018-09-06T10:16:36.526Z,48.90
2018-09-06T10:17:40.657Z,48.80
2018-09-06T10:18:45.218Z,49.00
2018-09-06T10:19:49.392Z,48.70
2018-09-06T10:20:53.736Z,48.80
2018-09-06T10:21:57.908Z,48.70
2018-09-06T10:23:02.014Z,48.60
2018-09-06T10:24:06.328Z,48.60
2018-09-06T10:25:10.549Z,48.30
2018-09-06T10:26:14.678Z,48.40
2018-09-06T10:27:19.010Z,48.00
2018-09-06T10:28:23.202Z,47.80
2018-09-06T10:29:27.628Z,47.90
2018-09-06T10:30:32.027Z,47.90
2018-09-06T10:31:36.299Z,47.60
2018-09-06T10:32:40.563Z,47.50
2018-09-06T10:33:44.974Z,47.20
2018-09-06T10:34:49.533Z,46.90
2018-09-06T10:35:53.671Z,46.70
2018-09-06T10:36:57.863Z,46.60
2018-09-06T10:38:01.959Z,46.90
2018-09-06T10:39:08.277Z,46.00
2018-09-06T10:40:12.432Z,46.00
2018-09-06T10:41:16.582Z,44.90
2018-09-06T10:42:20.704Z,44.70
2018-09-06T10:43:25.001Z,44.30
2018-09-06T10:44:29.487Z,43.90
2018-09-06T10:45:33.580Z,44.60
2018-09-06T10:46:37.696Z,43.90
2018-09-06T10:47:42.107Z,43.60
2018-09-06T10:48:46.237Z,43.40
2018-09-06T10:49:50.374Z,43.40
2018-09-06T10:50:54.816Z,43.10
2018-09-06T10:51:58.984Z,43.20
2018-09-06T10:53:03.145Z,43.10
2018-09-06T10:54:07.307Z,43.00
2018-09-06T10:55:11.743Z,42.80
2018-09-06T10:56:15.891Z,42.70
2018-09-06T10:57:20.127Z,42.50
2018-09-06T10:58:24.428Z,42.40
2018-09-06T10:59:29.100Z,41.50
2018-09-06T11:00:33.255Z,42.00
2018-09-06T11:01:37.504Z,41.80
2018-09-06T11:02:41.721Z,41.80
2018-09-06T11:03:46.358Z,41.30
2018-09-06T11:04:50.581Z,41.20
2018-09-06T11:05:54.732Z,41.20
2018-09-06T11:06:58.922Z,41.10
2018-09-06T11:08:03.205Z,41.00
2018-09-06T11:09:07.652Z,40.70
2018-09-06T11:10:11.843Z,40.50
2018-09-06T11:11:16.078Z,40.90
2018-09-06T11:12:20.853Z,40.10
2018-09-06T11:13:25.157Z,39.80
2018-09-06T11:14:29.558Z,39.70
2018-09-06T11:15:33.712Z,39.20
2018-09-06T11:16:38.066Z,39.10
2018-09-06T11:17:42.229Z,39.00
2018-09-06T11:18:46.589Z,38.90
2018-09-06T11:19:50.745Z,38.90
2018-09-06T11:20:55.296Z,39.10
2018-09-06T11:21:59.504Z,39.00
2018-09-06T11:23:03.787Z,39.20
2018-09-06T11:24:08.024Z,39.00
2018-09-06T11:25:12.193Z,39.00
2018-09-06T11:26:16.305Z,39.00
2018-09-06T11:27:20.461Z,39.20
2018-09-06T11:28:24.602Z,38.90
2018-09-06T11:29:29.176Z,38.90
2018-09-06T11:30:33.511Z,38.70
2018-09-06T11:31:38.126Z,38.20
2018-09-06T11:32:42.455Z,38.10
2018-09-06T11:33:46.547Z,37.50
2018-09-06T11:34:50.650Z,37.60
2018-09-06T11:35:55.112Z,37.40
2018-09-06T11:36:59.279Z,37.30
2018-09-06T11:38:03.521Z,37.50
2018-09-06T11:39:09.253Z,37.00
2018-09-06T11:40:13.504Z,37.10
2018-09-06T11:41:17.669Z,36.90
2018-09-06T11:42:21.940Z,36.70
2018-09-06T11:43:26.169Z,36.50
2018-09-06T11:44:30.462Z,35.90
2018-09-06T11:45:34.960Z,35.80
2018-09-06T11:46:39.357Z,35.70
2018-09-06T11:47:43.480Z,35.60
2018-09-06T11:48:47.728Z,35.50
2018-09-06T11:49:52.034Z,35.50
2018-09-06T11:50:56.335Z,36.00
2018-09-06T11:52:00.698Z,35.20
2018-09-06T11:53:04.824Z,35.90
2018-09-06T11:54:08.958Z,34.90
2018-09-06T11:55:13.395Z,34.60
2018-09-06T11:56:17.552Z,35.10
2018-09-06T11:57:21.740Z,34.40
2018-09-06T11:58:26.081Z,34.10
2018-09-06T11:59:30.344Z,34.00
2018-09-06T12:00:36.744Z,34.00
2018-09-06T12:01:41.132Z,33.60
2018-09-06T12:02:45.371Z,33.70
2018-09-06T12:03:49.661Z,33.60
2018-09-06T12:04:53.896Z,33.40
2018-09-06T12:05:58.443Z,34.10
2018-09-06T12:07:02.602Z,33.10
2018-09-06T12:08:10.088Z,33.10
2018-09-06T12:09:14.193Z,32.80
2018-09-06T12:10:18.390Z,33.10
2018-09-06T12:11:22.600Z,32.70
2018-09-06T12:12:26.899Z,32.80
2018-09-06T12:13:31.046Z,32.00
2018-09-06T12:14:35.308Z,32.50
2018-09-06T12:15:40.045Z,32.20
2018-09-06T12:16:44.204Z,32.00
2018-09-06T12:17:48.437Z,31.80
2018-09-06T12:18:52.899Z,32.00
2018-09-06T12:19:57.040Z,32.00
2018-09-06T12:21:01.160Z,31.70
2018-09-06T12:22:05.678Z,31.80
2018-09-06T12:23:09.942Z,31.60
2018-09-06T12:24:14.142Z,31.60
2018-09-06T12:25:18.375Z,31.50
2018-09-06T12:26:22.716Z,31.30
2018-09-06T12:27:26.813Z,31.30
2018-09-06T12:28:30.996Z,31.30
2018-09-06T12:29:35.427Z,31.10
2018-09-06T12:30:39.706Z,30.80
2018-09-06T12:31:43.855Z,30.70
2018-09-06T12:32:48.050Z,30.70
2018-09-06T12:33:52.094Z,30.70
2018-09-06T12:34:56.633Z,30.90
2018-09-06T12:36:00.793Z,30.90
2018-09-06T12:37:09.476Z,31.00
2018-09-06T12:38:13.583Z,31.00
2018-09-06T12:39:17.810Z,31.00
2018-09-06T12:40:22.292Z,31.10
2018-09-06T12:41:26.351Z,30.80
2018-09-06T12:42:30.490Z,30.90
2018-09-06T12:43:34.612Z,30.60
2018-09-06T12:44:38.789Z,30.70
2018-09-06T12:45:43.462Z,30.50
2018-09-06T12:46:47.540Z,30.50
2018-09-06T12:47:51.732Z,30.50
2018-09-06T12:48:55.929Z,30.80
2018-09-06T12:50:00.158Z,31.30
2018-09-06T12:51:04.471Z,30.30
2018-09-06T12:52:08.768Z,30.20
2018-09-06T12:53:12.876Z,30.00
2018-09-06T12:54:17.019Z,30.00
2018-09-06T12:55:21.194Z,29.80
2018-09-06T12:56:25.499Z,30.00
2018-09-06T12:57:29.902Z,29.90
2018-09-06T12:58:33.995Z,30.00
2018-09-06T12:59:38.507Z,29.80
2018-09-06T13:00:42.723Z,29.90
2018-09-06T13:01:47.095Z,29.90
2018-09-06T13:02:51.279Z,29.70
2018-09-06T13:03:55.835Z,29.60
2018-09-06T13:05:00.106Z,29.60
2018-09-06T13:06:04.300Z,29.50
2018-09-06T13:07:08.469Z,29.40
2018-09-06T13:08:12.661Z,29.40
2018-09-06T13:09:16.740Z,29.30
2018-09-06T13:10:21.270Z,29.10
2018-09-06T13:11:25.503Z,29.10
2018-09-06T13:12:29.634Z,29.10
2018-09-06T13:13:34.004Z,29.10
2018-09-06T13:14:38.122Z,29.10
2018-09-06T13:15:42.633Z,28.90
2018-09-06T13:16:46.863Z,28.90
2018-09-06T13:17:50.957Z,28.90
2018-09-06T13:18:55.172Z,28.80
2018-09-06T13:19:59.424Z,28.70
2018-09-06T13:21:03.848Z,28.70
2018-09-06T13:22:07.912Z,28.50
2018-09-06T13:23:12.422Z,28.50
2018-09-06T13:24:16.612Z,29.10
2018-09-06T13:25:20.796Z,28.50
2018-09-06T13:26:24.936Z,28.40
2018-09-06T13:27:29.476Z,28.40
2018-09-06T13:28:34.159Z,28.30
2018-09-06T13:29:38.264Z,28.20
2018-09-06T13:30:42.398Z,28.30
2018-09-06T13:31:46.564Z,28.30
2018-09-06T13:32:50.671Z,28.30
2018-09-06T13:33:54.849Z,28.30
2018-09-06T13:34:59.008Z,28.30
2018-09-06T13:36:03.135Z,28.20
2018-09-06T13:37:07.197Z,28.20
2018-09-06T13:38:11.328Z,28.20
2018-09-06T13:39:15.836Z,28.20
2018-09-06T13:40:20.360Z,28.20
2018-09-06T13:41:24.485Z,28.10
2018-09-06T13:42:28.628Z,28.10
2018-09-06T13:43:32.789Z,28.10
2018-09-06T13:44:36.883Z,28.10
2018-09-06T13:45:41.265Z,28.10
2018-09-06T13:46:45.342Z,28.20
2018-09-06T13:47:49.752Z,28.10
2018-09-06T13:48:54.083Z,28.10
2018-09-06T13:49:58.207Z,28.00
2018-09-06T13:51:02.969Z,27.70
2018-09-06T13:52:07.653Z,27.70
2018-09-06T13:53:11.902Z,27.60
2018-09-06T13:54:15.998Z,27.60
2018-09-06T13:55:20.124Z,27.40